N27JY PKMJ-PKWA
Flight info
| Callsign | N27JY |
|---|---|
| Flight time | N/A |
| Altitude | 34000 |
| Route | OREEO |
| Aircraft | CL60/M-SBDE1E2E3FGHIJ1J4J5J7M3RWXYZ/LB1V1D1 |
Departure
| Time | N/A |
|---|---|
| Airport | Marshall Islands International Airport (PKMJ) |
Arrival
| Time | 2026-04-24 19:10 |
|---|---|
| Airport | Bucholz Army Air Field (PKWA) |
| Time | Latitude | Longitude | Altitude | Speed | Heading |
|---|---|---|---|---|---|
| 2026-04-24 18:54 | 8.22133 | 168.47209 | 21330 ft | 415 kts | 292° |
| 2026-04-24 18:55 | 8.24313 | 168.41829 | 20231 ft | 411 kts | 292° |
| 2026-04-24 18:55 | 8.25395 | 168.39159 | 19684 ft | 409 kts | 292° |
| 2026-04-24 18:55 | 8.26475 | 168.36491 | 19140 ft | 408 kts | 292° |
| 2026-04-24 18:56 | 8.27535 | 168.33873 | 18606 ft | 407 kts | 292° |
| 2026-04-24 18:56 | 8.28596 | 168.31251 | 18074 ft | 405 kts | 292° |
| 2026-04-24 18:56 | 8.29664 | 168.28612 | 17534 ft | 403 kts | 292° |
| 2026-04-24 18:56 | 8.30728 | 168.25983 | 17000 ft | 401 kts | 293° |
| 2026-04-24 18:57 | 8.31773 | 168.23398 | 16466 ft | 399 kts | 293° |
| 2026-04-24 18:57 | 8.32819 | 168.20811 | 15939 ft | 396 kts | 293° |
| 2026-04-24 18:57 | 8.33851 | 168.18259 | 15418 ft | 393 kts | 293° |
| 2026-04-24 18:57 | 8.34888 | 168.15694 | 14900 ft | 390 kts | 293° |
| 2026-04-24 18:58 | 8.35905 | 168.13176 | 14381 ft | 387 kts | 293° |
| 2026-04-24 18:58 | 8.36919 | 168.10664 | 13868 ft | 382 kts | 293° |
| 2026-04-24 18:58 | 8.37898 | 168.08240 | 13365 ft | 371 kts | 294° |
| 2026-04-24 18:58 | 8.38865 | 168.05843 | 12887 ft | 362 kts | 294° |
| 2026-04-24 18:59 | 8.39798 | 168.03532 | 12396 ft | 352 kts | 294° |
| 2026-04-24 18:59 | 8.40702 | 168.01289 | 11952 ft | 342 kts | 294° |
| 2026-04-24 18:59 | 8.41596 | 167.99075 | 11534 ft | 337 kts | 294° |
| 2026-04-24 18:59 | 8.42477 | 167.96892 | 11066 ft | 330 kts | 294° |
| 2026-04-24 19:00 | 8.43327 | 167.94781 | 10637 ft | 322 kts | 294° |
| 2026-04-24 19:00 | 8.44158 | 167.92722 | 10216 ft | 316 kts | 294° |
| 2026-04-24 19:00 | 8.44981 | 167.90680 | 9797 ft | 309 kts | 294° |
| 2026-04-24 19:00 | 8.45783 | 167.88690 | 9423 ft | 305 kts | 294° |
| 2026-04-24 19:01 | 8.46594 | 167.86681 | 8975 ft | 307 kts | 294° |
| 2026-04-24 19:01 | 8.47390 | 167.84709 | 8579 ft | 305 kts | 295° |
| 2026-04-24 19:01 | 8.48190 | 167.82724 | 8169 ft | 302 kts | 295° |
| 2026-04-24 19:01 | 8.48990 | 167.80739 | 7763 ft | 300 kts | 295° |
| 2026-04-24 19:02 | 8.49517 | 167.79431 | 7498 ft | 299 kts | 294° |
| 2026-04-24 19:02 | 8.50561 | 167.76842 | 6970 ft | 298 kts | 295° |
| 2026-04-24 19:02 | 8.51346 | 167.74895 | 6574 ft | 299 kts | 295° |
| 2026-04-24 19:02 | 8.52128 | 167.72954 | 6178 ft | 298 kts | 295° |
| 2026-04-24 19:03 | 8.52889 | 167.71010 | 5783 ft | 298 kts | 294° |
| 2026-04-24 19:03 | 8.53646 | 167.69052 | 5384 ft | 296 kts | 294° |
| 2026-04-24 19:03 | 8.54397 | 167.67113 | 5016 ft | 293 kts | 294° |
| 2026-04-24 19:03 | 8.55133 | 167.65207 | 4737 ft | 293 kts | 294° |
| 2026-04-24 19:04 | 8.55890 | 167.63255 | 4291 ft | 294 kts | 294° |
| 2026-04-24 19:04 | 8.56625 | 167.61356 | 3918 ft | 291 kts | 294° |
| 2026-04-24 19:04 | 8.57356 | 167.59468 | 3511 ft | 285 kts | 296° |
| 2026-04-24 19:04 | 8.58347 | 167.57799 | 3131 ft | 268 kts | 318° |
| 2026-04-24 19:05 | 8.59811 | 167.56708 | 2777 ft | 252 kts | 341° |
| 2026-04-24 19:05 | 8.61447 | 167.56114 | 2415 ft | 250 kts | 349° |
| 2026-04-24 19:05 | 8.63116 | 167.55614 | 2094 ft | 245 kts | 352° |
| 2026-04-24 19:05 | 8.64728 | 167.55551 | 1807 ft | 214 kts | 17° |
| 2026-04-24 19:06 | 8.65976 | 167.56133 | 1544 ft | 180 kts | 41° |
| 2026-04-24 19:06 | 8.66754 | 167.56985 | 1475 ft | 158 kts | 58° |
| 2026-04-24 19:06 | 8.67273 | 167.57960 | 1485 ft | 155 kts | 67° |
| 2026-04-24 19:06 | 8.67627 | 167.58981 | 1485 ft | 154 kts | 72° |
| 2026-04-24 19:07 | 8.67941 | 167.60011 | 1479 ft | 153 kts | 72° |
| 2026-04-24 19:07 | 8.68259 | 167.61044 | 1479 ft | 153 kts | 72° |
| 2026-04-24 19:07 | 8.68476 | 167.61748 | 1479 ft | 153 kts | 72° |
| 2026-04-24 19:07 | 8.68897 | 167.63110 | 1479 ft | 153 kts | 72° |
| 2026-04-24 19:08 | 8.69217 | 167.64146 | 1479 ft | 153 kts | 72° |
| 2026-04-24 19:08 | 8.69534 | 167.65172 | 1451 ft | 155 kts | 72° |
| 2026-04-24 19:08 | 8.69854 | 167.66209 | 1253 ft | 149 kts | 72° |
| 2026-04-24 19:08 | 8.70174 | 167.67246 | 1045 ft | 153 kts | 72° |
| 2026-04-24 19:09 | 8.70461 | 167.68162 | 852 ft | 153 kts | 71° |
| 2026-04-24 19:09 | 8.70781 | 167.69192 | 657 ft | 153 kts | 72° |
| 2026-04-24 19:09 | 8.71098 | 167.70235 | 444 ft | 154 kts | 72° |
| 2026-04-24 19:09 | 8.71417 | 167.71272 | 246 ft | 155 kts | 71° |
| 2026-04-24 19:10 | 8.71735 | 167.72287 | 81 ft | 142 kts | 74° |
| 2026-04-24 19:10 | 8.72000 | 167.73125 | 22 ft | 109 kts | 71° |
| 2026-04-24 19:10 | 8.72181 | 167.73704 | 21 ft | 43 kts | 73° |
| 2026-04-24 19:10 | 8.72246 | 167.73908 | 23 ft | 28 kts | 71° |
| 2026-04-24 19:11 | 8.72344 | 167.73972 | 23 ft | 9 kts | 341° |
| 2026-04-24 19:11 | 8.72410 | 167.73953 | 24 ft | 9 kts | 14° |
| 2026-04-24 19:11 | 8.72436 | 167.74017 | 25 ft | 11 kts | 75° |
| 2026-04-24 19:11 | 8.72461 | 167.74103 | 24 ft | 14 kts | 57° |
| 2026-04-24 19:12 | 8.72545 | 167.74144 | 25 ft | 12 kts | 19° |
| 2026-04-24 19:12 | 8.72591 | 167.74158 | 25 ft | 15 kts | 17° |
| 2026-04-24 19:12 | 8.72655 | 167.74158 | 26 ft | 9 kts | 320° |
| 2026-04-24 19:12 | 8.72679 | 167.74135 | 26 ft | 0 kts | 307° |